Titan — WDG3294 — position and weather

sailwx.info

Track history (hours):
 
Tides and Currents Weather Stations Pressure Air Temp Water Temp Dewpoint Dewpoint Depression Visibility Wind Speed Wind Dir Waves Ship Positions

Titan

Owner: Titan Fishing, LLC, New Bedford, MA. More information available from US FCC via Universal Licensing System and Coast Guard Vessel Documentation Center.

Last reported at 2014-Sep-29 17:23 UTC. Time now 2014-Oct-02 12:42 UTC.
Position N 41°38' W 070°55'.

; draft 4 m.

Type: Other ship. MMSI: 367524560.

Date/timePositionNaut miles runAvg speedWind from/ knotsBaromVisibWave heightAir tempDewpointWater temp
2014-Sep-29 17:23N 41°38' W 070°55'0 0.0
2014-Sep-29 04:27N 41°38' W 070°55'0 0.0
2014-Sep-29 03:11N 41°38' W 070°55'0 0.0
2014-Sep-29 02:32N 41°38' W 070°55'0 0.0
2014-Sep-28 21:31N 41°38' W 070°55'  
2014-Sep-25 08:11N 41°38' W 070°55'15 0.5
2014-Sep-23 23:07N 41°26' W 071°08'5 9.1
2014-Sep-23 22:33N 41°25' W 071°14'8 8.0
2014-Sep-23 21:33N 41°28' W 071°25'8 8.1
2014-Sep-23 20:32N 41°36' W 071°24'1 0.2
2014-Sep-23 14:32N 41°37' W 071°24'0 0.0
2014-Sep-23 13:11N 41°37' W 071°24'0 0.0
2014-Sep-23 12:33N 41°37' W 071°24'0 0.0
2014-Sep-23 11:33N 41°37' W 071°24'0 0.0
2014-Sep-23 10:33N 41°37' W 071°24'8 5.7
2014-Sep-23 09:13N 41°29' W 071°25'5 7.2
2014-Sep-23 08:33N 41°25' W 071°21'8 8.5
2014-Sep-23 07:33N 41°23' W 071°10'8 8.3
2014-Sep-23 06:33N 41°20' W 070°59'8 8.1
2014-Sep-23 05:32N 41°18' W 070°49'23 7.6
2014-Sep-23 02:31N 41°10' W 070°20'7 7.1
2014-Sep-23 01:27N 41°07' W 070°11'  
Track history (hours):
 
Tides and Currents Weather Stations Pressure Air Temp Water Temp Dewpoint Dewpoint Depression Visibility Wind Speed Wind Dir Waves Ship Positions

Titan

Owner: Titan Fishing, LLC, New Bedford, MA. More information available from US FCC via Universal Licensing System and Coast Guard Vessel Documentation Center.

Last reported at 2014-Sep-29 17:23 UTC. Time now 2014-Oct-02 12:42 UTC.
Position N 41°38' W 070°55'.

; draft 4 m.

Type: Other ship. MMSI: 367524560.

Date/timePositionNaut miles runAvg speedWind from/ knotsBaromVisibWave heightAir tempDewpointWater temp
2014-Sep-29 17:23N 41°38' W 070°55'0 0.0
2014-Sep-29 04:27N 41°38' W 070°55'0 0.0
2014-Sep-29 03:11N 41°38' W 070°55'0 0.0
2014-Sep-29 02:32N 41°38' W 070°55'0 0.0
2014-Sep-28 21:31N 41°38' W 070°55'  
2014-Sep-25 08:11N 41°38' W 070°55'15 0.5
2014-Sep-23 23:07N 41°26' W 071°08'5 9.1
2014-Sep-23 22:33N 41°25' W 071°14'8 8.0
2014-Sep-23 21:33N 41°28' W 071°25'8 8.1
2014-Sep-23 20:32N 41°36' W 071°24'1 0.2
2014-Sep-23 14:32N 41°37' W 071°24'0 0.0
2014-Sep-23 13:11N 41°37' W 071°24'0 0.0
2014-Sep-23 12:33N 41°37' W 071°24'0 0.0
2014-Sep-23 11:33N 41°37' W 071°24'0 0.0
2014-Sep-23 10:33N 41°37' W 071°24'8 5.7
2014-Sep-23 09:13N 41°29' W 071°25'5 7.2
2014-Sep-23 08:33N 41°25' W 071°21'8 8.5
2014-Sep-23 07:33N 41°23' W 071°10'8 8.3
2014-Sep-23 06:33N 41°20' W 070°59'8 8.1
2014-Sep-23 05:32N 41°18' W 070°49'23 7.6
2014-Sep-23 02:31N 41°10' W 070°20'7 7.1
2014-Sep-23 01:27N 41°07' W 070°11'  

Dump ship's entire track history